Main page
METAR-TAF:

METAR-TAF

Airports :

Tehran, Iran

Mehrabad International Airport

latitude: 35-41N, longitude: 051-21E, elevation: 1204 m

Current weather observation

The report was made 29 minutes ago, at 07:00 UTC
Wind 6 kt from the West/Southwest
Temperature 30°C
Humidity 5%
Pressure 1016 hPa
Visibility 10 km or more
no clouds below 1500 m and no cumulonimbus

METAR: OIII 260700Z 24006KT CAVOK 30/M13 Q1016 A3001

Time: 11:59 (07:29 UTC)

Forecast

The report was made 2 hours and 19 minutes ago, at 05:10 UTC
Forecast valid from 26 at 06 UTC to 27 at 12 UTC
Wind 6 kt from the West
Visibility 10 km or more
no clouds below 1500 m and no cumulonimbus

TAF: OIII 260510Z 2606/2712 27003MPS CAVOK

Weather observations and forecasts of more than 4000 airports (METAR and TAF reports).

The available stations are represented by yellow and red dots on the map.

Hover mouse over dot to see the name of the station.

Then click to see weather observations and forecasts.

To change the map : click on the green buttons with a black cross to zoom in, on the green button with a dash to zoom out, or on the green arrows for adjacent maps.


METAR-TAF: